sensor_id;sensor_type;location;lat;lon;timestamp;pressure;altitude;pressure_sealevel;temperature;humidity
34185;BME280;20454;48.100;11.776;2022-07-17T00:00:37;96192.66;;;15.44;62.53
34185;BME280;20454;48.100;11.776;2022-07-17T00:03:15;96190.72;;;15.36;62.61
34185;BME280;20454;48.100;11.776;2022-07-17T00:05:42;96190.56;;;15.32;62.76
34185;BME280;20454;48.100;11.776;2022-07-17T00:08:10;96188.75;;;15.28;62.92
34185;BME280;20454;48.100;11.776;2022-07-17T00:10:39;96195.19;;;15.28;61.84
34185;BME280;20454;48.100;11.776;2022-07-17T00:13:06;96203.59;;;15.28;61.09
34185;BME280;20454;48.100;11.776;2022-07-17T00:15:32;96198.66;;;15.25;61.19
34185;BME280;20454;48.100;11.776;2022-07-17T00:17:58;96194.88;;;15.21;61.26
34185;BME280;20454;48.100;11.776;2022-07-17T00:20:28;96177.41;;;15.16;61.59
34185;BME280;20454;48.100;11.776;2022-07-17T00:22:54;96198.81;;;15.20;62.48
34185;BME280;20454;48.100;11.776;2022-07-17T00:25:24;96193.91;;;15.17;62.83
34185;BME280;20454;48.100;11.776;2022-07-17T00:27:50;96189.78;;;15.15;62.78
34185;BME280;20454;48.100;11.776;2022-07-17T00:30:17;96193.75;;;15.14;62.56
34185;BME280;20454;48.100;11.776;2022-07-17T00:32:43;96198.72;;;15.08;62.97
34185;BME280;20454;48.100;11.776;2022-07-17T00:35:10;96190.16;;;15.05;63.06
34185;BME280;20454;48.100;11.776;2022-07-17T00:37:45;96200.53;;;15.04;63.15
34185;BME280;20454;48.100;11.776;2022-07-17T00:40:18;96190.00;;;15.01;63.34
34185;BME280;20454;48.100;11.776;2022-07-17T00:42:45;96188.34;;;15.00;63.51
34185;BME280;20454;48.100;11.776;2022-07-17T00:45:12;96193.81;;;14.97;63.26
34185;BME280;20454;48.100;11.776;2022-07-17T00:47:59;96182.91;;;14.95;63.58
34185;BME280;20454;48.100;11.776;2022-07-17T00:50:42;96185.09;;;14.90;63.97
34185;BME280;20454;48.100;11.776;2022-07-17T00:53:08;96190.00;;;14.84;63.95
34185;BME280;20454;48.100;11.776;2022-07-17T00:55:36;96196.78;;;14.83;65.08
34185;BME280;20454;48.100;11.776;2022-07-17T00:58:04;96195.31;;;14.77;65.03
34185;BME280;20454;48.100;11.776;2022-07-17T01:00:30;96198.78;;;14.75;64.57
34185;BME280;20454;48.100;11.776;2022-07-17T01:02:56;96192.19;;;14.71;65.38
34185;BME280;20454;48.100;11.776;2022-07-17T01:05:23;96200.41;;;14.67;64.81
34185;BME280;20454;48.100;11.776;2022-07-17T01:07:50;96195.81;;;14.63;65.32
34185;BME280;20454;48.100;11.776;2022-07-17T01:10:18;96207.84;;;14.63;65.66
34185;BME280;20454;48.100;11.776;2022-07-17T01:12:48;96199.63;;;14.58;65.04
34185;BME280;20454;48.100;11.776;2022-07-17T01:15:14;96192.38;;;14.57;65.05
34185;BME280;20454;48.100;11.776;2022-07-17T01:17:41;96193.84;;;14.55;65.28
34185;BME280;20454;48.100;11.776;2022-07-17T01:20:09;96193.19;;;14.49;65.75
34185;BME280;20454;48.100;11.776;2022-07-17T01:22:50;96196.31;;;14.48;66.60
34185;BME280;20454;48.100;11.776;2022-07-17T01:25:20;96187.75;;;14.44;66.33
34185;BME280;20454;48.100;11.776;2022-07-17T01:27:47;96200.13;;;14.43;66.34
34185;BME280;20454;48.100;11.776;2022-07-17T01:30:12;96193.19;;;14.41;66.18
34185;BME280;20454;48.100;11.776;2022-07-17T01:32:41;96195.00;;;14.37;66.63
34185;BME280;20454;48.100;11.776;2022-07-17T01:35:10;96197.63;;;14.33;67.21
34185;BME280;20454;48.100;11.776;2022-07-17T01:37:39;96193.50;;;14.31;67.49
34185;BME280;20454;48.100;11.776;2022-07-17T01:40:06;96197.47;;;14.30;67.83
34185;BME280;20454;48.100;11.776;2022-07-17T01:42:32;96201.75;;;14.27;67.47
34185;BME280;20454;48.100;11.776;2022-07-17T01:44:58;96184.78;;;14.24;68.13
34185;BME280;20454;48.100;11.776;2022-07-17T01:47:24;96192.38;;;14.23;67.87
34185;BME280;20454;48.100;11.776;2022-07-17T01:49:56;96194.47;;;14.18;68.52
34185;BME280;20454;48.100;11.776;2022-07-17T01:52:25;96190.69;;;14.14;68.66
34185;BME280;20454;48.100;11.776;2022-07-17T01:54:52;96196.28;;;14.14;68.63
34185;BME280;20454;48.100;11.776;2022-07-17T01:57:18;96193.31;;;14.10;68.31
34185;BME280;20454;48.100;11.776;2022-07-17T01:59:45;96199.56;;;14.07;68.55
34185;BME280;20454;48.100;11.776;2022-07-17T07:02:42;96225.31;;;19.49;47.33
34185;BME280;20454;48.100;11.776;2022-07-17T07:05:08;96211.94;;;19.61;46.79
34185;BME280;20454;48.100;11.776;2022-07-17T07:07:34;96222.06;;;19.78;46.43
34185;BME280;20454;48.100;11.776;2022-07-17T07:10:00;96218.03;;;19.79;47.30
34185;BME280;20454;48.100;11.776;2022-07-17T07:12:26;96223.88;;;19.86;47.72
34185;BME280;20454;48.100;11.776;2022-07-17T07:14:51;96214.88;;;19.96;46.87
34185;BME280;20454;48.100;11.776;2022-07-17T07:17:17;96218.00;;;20.06;47.13
34185;BME280;20454;48.100;11.776;2022-07-17T07:19:43;96215.38;;;20.13;46.86
34185;BME280;20454;48.100;11.776;2022-07-17T07:22:09;96221.72;;;20.26;46.77
34185;BME280;20454;48.100;11.776;2022-07-17T07:24:35;96215.22;;;20.41;45.35
34185;BME280;20454;48.100;11.776;2022-07-17T07:27:00;96212.94;;;20.46;45.13
34185;BME280;20454;48.100;11.776;2022-07-17T07:29:26;96223.25;;;20.54;45.28
34185;BME280;20454;48.100;11.776;2022-07-17T07:31:52;96219.81;;;20.64;45.50
34185;BME280;20454;48.100;11.776;2022-07-17T07:34:18;96217.47;;;20.85;44.15
34185;BME280;20454;48.100;11.776;2022-07-17T07:36:43;96218.84;;;20.91;43.99
34185;BME280;20454;48.100;11.776;2022-07-17T07:39:09;96214.19;;;20.98;43.35
34185;BME280;20454;48.100;11.776;2022-07-17T07:41:35;96213.22;;;21.10;43.89
34185;BME280;20454;48.100;11.776;2022-07-17T07:44:01;96225.13;;;21.19;43.03
34185;BME280;20454;48.100;11.776;2022-07-17T07:46:26;96214.88;;;21.30;42.57
34185;BME280;20454;48.100;11.776;2022-07-17T07:48:52;96212.63;;;21.39;42.84
34185;BME280;20454;48.100;11.776;2022-07-17T07:51:18;96213.59;;;21.46;42.84
34185;BME280;20454;48.100;11.776;2022-07-17T07:53:44;96222.22;;;21.53;42.66
34185;BME280;20454;48.100;11.776;2022-07-17T07:56:09;96220.41;;;21.64;41.98
34185;BME280;20454;48.100;11.776;2022-07-17T07:58:35;96208.50;;;21.74;40.13
34185;BME280;20454;48.100;11.776;2022-07-17T08:01:01;96209.44;;;21.82;39.83
34185;BME280;20454;48.100;11.776;2022-07-17T08:03:26;96209.63;;;21.92;39.73
34185;BME280;20454;48.100;11.776;2022-07-17T08:05:52;96213.41;;;22.00;39.21
34185;BME280;20454;48.100;11.776;2022-07-17T08:08:18;96216.03;;;22.12;39.53
34185;BME280;20454;48.100;11.776;2022-07-17T08:10:44;96215.72;;;22.17;39.29
34185;BME280;20454;48.100;11.776;2022-07-17T08:13:09;96214.09;;;22.38;38.86
34185;BME280;20454;48.100;11.776;2022-07-17T08:15:35;96203.44;;;22.54;38.27
34185;BME280;20454;48.100;11.776;2022-07-17T08:18:02;96202.38;;;22.66;38.65
34185;BME280;20454;48.100;11.776;2022-07-17T08:20:28;96209.16;;;22.84;38.74
34185;BME280;20454;48.100;11.776;2022-07-17T08:22:54;96210.16;;;22.98;38.69
34185;BME280;20454;48.100;11.776;2022-07-17T08:25:20;96215.97;;;23.05;38.36
34185;BME280;20454;48.100;11.776;2022-07-17T08:27:45;96210.44;;;23.16;38.00
34185;BME280;20454;48.100;11.776;2022-07-17T08:30:14;96226.91;;;23.33;38.97
34185;BME280;20454;48.100;11.776;2022-07-17T08:32:41;96214.53;;;23.51;37.27
34185;BME280;20454;48.100;11.776;2022-07-17T08:35:07;96218.69;;;23.57;37.77
34185;BME280;20454;48.100;11.776;2022-07-17T08:37:44;96230.16;;;23.68;37.67
34185;BME280;20454;48.100;11.776;2022-07-17T08:40:19;96222.97;;;23.77;37.79
34185;BME280;20454;48.100;11.776;2022-07-17T08:42:46;96210.84;;;23.84;38.12
34185;BME280;20454;48.100;11.776;2022-07-17T08:45:12;96221.84;;;23.85;37.91
34185;BME280;20454;48.100;11.776;2022-07-17T08:47:39;96223.34;;;24.09;36.97
34185;BME280;20454;48.100;11.776;2022-07-17T08:50:06;96227.56;;;24.25;37.02
34185;BME280;20454;48.100;11.776;2022-07-17T08:52:32;96218.81;;;24.44;36.35
34185;BME280;20454;48.100;11.776;2022-07-17T08:54:58;96219.81;;;24.66;36.01
34185;BME280;20454;48.100;11.776;2022-07-17T08:57:24;96230.91;;;24.81;35.88
34185;BME280;20454;48.100;11.776;2022-07-17T08:59:50;96222.47;;;24.95;36.13
34185;BME280;20454;48.100;11.776;2022-07-17T09:02:15;96228.63;;;25.08;35.60
34185;BME280;20454;48.100;11.776;2022-07-17T09:04:41;96223.03;;;25.22;35.84
34185;BME280;20454;48.100;11.776;2022-07-17T09:07:07;96222.69;;;25.30;36.26
34185;BME280;20454;48.100;11.776;2022-07-17T09:09:33;96218.69;;;25.42;34.61
34185;BME280;20454;48.100;11.776;2022-07-17T09:12:00;96223.63;;;25.52;35.83
34185;BME280;20454;48.100;11.776;2022-07-17T09:14:40;96225.75;;;25.72;35.80
34185;BME280;20454;48.100;11.776;2022-07-17T09:17:09;96218.44;;;25.78;34.77
34185;BME280;20454;48.100;11.776;2022-07-17T09:19:43;96216.00;;;25.87;33.97
34185;BME280;20454;48.100;11.776;2022-07-17T09:27:34;96218.56;;;26.20;33.90
34185;BME280;20454;48.100;11.776;2022-07-17T09:30:08;96213.72;;;26.38;32.35
34185;BME280;20454;48.100;11.776;2022-07-17T09:32:42;96211.69;;;26.56;33.22
34185;BME280;20454;48.100;11.776;2022-07-17T09:35:10;96205.19;;;26.63;32.04
34185;BME280;20454;48.100;11.776;2022-07-17T09:37:37;96212.13;;;26.72;32.51
34185;BME280;20454;48.100;11.776;2022-07-17T09:40:12;96207.19;;;26.83;32.48
34185;BME280;20454;48.100;11.776;2022-07-17T09:42:57;96201.47;;;26.86;32.88
34185;BME280;20454;48.100;11.776;2022-07-17T09:45:24;96212.47;;;27.05;32.38
34185;BME280;20454;48.100;11.776;2022-07-17T09:47:50;96203.06;;;27.08;32.35
34185;BME280;20454;48.100;11.776;2022-07-17T09:50:19;96203.03;;;27.29;32.28
34185;BME280;20454;48.100;11.776;2022-07-17T09:52:45;96201.31;;;27.53;32.30
34185;BME280;20454;48.100;11.776;2022-07-17T09:55:16;96192.66;;;27.81;30.15
34185;BME280;20454;48.100;11.776;2022-07-17T09:57:42;96202.38;;;27.97;31.86
34185;BME280;20454;48.100;11.776;2022-07-17T10:00:10;96200.19;;;28.22;30.97
34185;BME280;20454;48.100;11.776;2022-07-17T10:02:43;96206.63;;;28.33;32.04
34185;BME280;20454;48.100;11.776;2022-07-17T10:05:14;96194.66;;;28.52;30.96
34185;BME280;20454;48.100;11.776;2022-07-17T10:07:44;96204.34;;;28.72;31.02
34185;BME280;20454;48.100;11.776;2022-07-17T10:10:15;96199.69;;;28.89;30.73
34185;BME280;20454;48.100;11.776;2022-07-17T10:12:48;96199.94;;;29.08;29.64
34185;BME280;20454;48.100;11.776;2022-07-17T10:15:15;96200.19;;;29.24;29.75
34185;BME280;20454;48.100;11.776;2022-07-17T10:17:42;96214.41;;;29.35;29.06
34185;BME280;20454;48.100;11.776;2022-07-17T10:20:09;96211.81;;;29.47;29.91
34185;BME280;20454;48.100;11.776;2022-07-17T10:22:45;96205.44;;;29.70;30.83
34185;BME280;20454;48.100;11.776;2022-07-17T10:25:16;96210.66;;;29.75;29.41
34185;BME280;20454;48.100;11.776;2022-07-17T10:27:54;96215.47;;;29.85;29.44
34185;BME280;20454;48.100;11.776;2022-07-17T10:30:27;96211.59;;;29.98;29.23
34185;BME280;20454;48.100;11.776;2022-07-17T10:32:58;96212.31;;;30.06;29.30
34185;BME280;20454;48.100;11.776;2022-07-17T10:35:26;96203.75;;;30.32;28.50
34185;BME280;20454;48.100;11.776;2022-07-17T10:37:52;96212.44;;;30.55;28.21
34185;BME280;20454;48.100;11.776;2022-07-17T10:40:25;96215.16;;;30.66;28.33
34185;BME280;20454;48.100;11.776;2022-07-17T10:43:02;96204.00;;;30.94;27.81
34185;BME280;20454;48.100;11.776;2022-07-17T10:45:32;96212.59;;;31.21;27.45
34185;BME280;20454;48.100;11.776;2022-07-17T10:48:15;96190.91;;;31.39;27.27
34185;BME280;20454;48.100;11.776;2022-07-17T10:50:45;96194.69;;;31.56;27.91
34185;BME280;20454;48.100;11.776;2022-07-17T10:53:20;96207.28;;;31.85;25.42
34185;BME280;20454;48.100;11.776;2022-07-17T10:55:56;96207.34;;;32.01;26.04
34185;BME280;20454;48.100;11.776;2022-07-17T11:01:12;96202.50;;;32.69;26.09
34185;BME280;20454;48.100;11.776;2022-07-17T11:06:19;96182.97;;;33.24;25.17
34185;BME280;20454;48.100;11.776;2022-07-17T11:11:21;96180.66;;;33.79;24.59
34185;BME280;20454;48.100;11.776;2022-07-17T11:13:47;96173.91;;;34.11;22.84
34185;BME280;20454;48.100;11.776;2022-07-17T11:16:27;96176.53;;;34.34;23.70
34185;BME280;20454;48.100;11.776;2022-07-17T11:18:55;96174.22;;;34.54;22.26
34185;BME280;20454;48.100;11.776;2022-07-17T11:21:21;96176.69;;;34.93;22.88
34185;BME280;20454;48.100;11.776;2022-07-17T11:23:53;96180.72;;;35.08;20.31
34185;BME280;20454;48.100;11.776;2022-07-17T11:26:19;96169.97;;;35.21;21.71
34185;BME280;20454;48.100;11.776;2022-07-17T11:28:49;96155.13;;;35.53;21.71
34185;BME280;20454;48.100;11.776;2022-07-17T11:31:25;96153.34;;;36.02;21.35
34185;BME280;20454;48.100;11.776;2022-07-17T11:34:02;96149.47;;;36.48;21.25
34185;BME280;20454;48.100;11.776;2022-07-17T11:36:34;96151.94;;;36.98;20.19
34185;BME280;20454;48.100;11.776;2022-07-17T11:39:13;96157.94;;;37.52;19.70
34185;BME280;20454;48.100;11.776;2022-07-17T11:41:43;96137.31;;;37.68;18.98
34185;BME280;20454;48.100;11.776;2022-07-17T11:44:15;96150.69;;;37.56;19.70
34185;BME280;20454;48.100;11.776;2022-07-17T11:46:45;96145.16;;;37.49;19.21
34185;BME280;20454;48.100;11.776;2022-07-17T11:51:56;96132.78;;;37.58;19.55
34185;BME280;20454;48.100;11.776;2022-07-17T11:54:23;96140.03;;;37.53;18.76
34185;BME280;20454;48.100;11.776;2022-07-17T11:56:58;96136.00;;;37.60;19.13
34185;BME280;20454;48.100;11.776;2022-07-17T11:59:31;96127.63;;;37.71;18.36
34185;BME280;20454;48.100;11.776;2022-07-17T12:02:14;96129.53;;;37.74;18.48
34185;BME280;20454;48.100;11.776;2022-07-17T12:04:54;96127.75;;;37.76;18.66
34185;BME280;20454;48.100;11.776;2022-07-17T12:07:22;96120.78;;;37.38;18.44
34185;BME280;20454;48.100;11.776;2022-07-17T12:09:48;96123.84;;;37.43;19.25
34185;BME280;20454;48.100;11.776;2022-07-17T12:12:26;96125.81;;;37.55;20.08
34185;BME280;20454;48.100;11.776;2022-07-17T12:14:57;96125.38;;;37.75;18.78
34185;BME280;20454;48.100;11.776;2022-07-17T12:17:25;96137.28;;;37.95;18.71
34185;BME280;20454;48.100;11.776;2022-07-17T12:20:07;96133.91;;;37.60;18.30
34185;BME280;20454;48.100;11.776;2022-07-17T12:22:47;96135.53;;;37.79;17.83
34185;BME280;20454;48.100;11.776;2022-07-17T12:25:27;96132.97;;;37.72;18.46
34185;BME280;20454;48.100;11.776;2022-07-17T12:27:54;96127.63;;;37.62;18.79
34185;BME280;20454;48.100;11.776;2022-07-17T12:30:20;96115.19;;;37.61;19.08
34185;BME280;20454;48.100;11.776;2022-07-17T12:32:46;96124.50;;;37.47;18.98
34185;BME280;20454;48.100;11.776;2022-07-17T12:35:15;96126.00;;;37.52;19.43
34185;BME280;20454;48.100;11.776;2022-07-17T12:37:41;96129.03;;;37.39;18.57
34185;BME280;20454;48.100;11.776;2022-07-17T12:40:08;96126.31;;;37.63;18.90
34185;BME280;20454;48.100;11.776;2022-07-17T12:42:34;96125.19;;;37.69;18.90
34185;BME280;20454;48.100;11.776;2022-07-17T12:45:00;96131.66;;;37.82;18.96
34185;BME280;20454;48.100;11.776;2022-07-17T12:47:27;96134.38;;;37.95;19.11
34185;BME280;20454;48.100;11.776;2022-07-17T12:49:53;96129.56;;;38.01;19.65
34185;BME280;20454;48.100;11.776;2022-07-17T12:52:19;96125.84;;;38.00;18.86
34185;BME280;20454;48.100;11.776;2022-07-17T12:54:45;96118.44;;;37.99;19.47
34185;BME280;20454;48.100;11.776;2022-07-17T12:57:11;96129.06;;;38.02;18.04
34185;BME280;20454;48.100;11.776;2022-07-17T12:59:36;96118.59;;;37.96;17.95
34185;BME280;20454;48.100;11.776;2022-07-17T13:02:02;96116.13;;;37.76;17.95
34185;BME280;20454;48.100;11.776;2022-07-17T13:04:28;96125.53;;;37.71;18.41
34185;BME280;20454;48.100;11.776;2022-07-17T13:06:54;96121.78;;;37.53;18.19
34185;BME280;20454;48.100;11.776;2022-07-17T13:09:19;96120.03;;;37.55;18.33
34185;BME280;20454;48.100;11.776;2022-07-17T13:11:45;96116.78;;;37.62;18.68
34185;BME280;20454;48.100;11.776;2022-07-17T13:14:11;96123.09;;;37.70;18.25
34185;BME280;20454;48.100;11.776;2022-07-17T13:16:41;96108.09;;;37.53;17.71
34185;BME280;20454;48.100;11.776;2022-07-17T13:19:07;96114.38;;;37.61;18.65
34185;BME280;20454;48.100;11.776;2022-07-17T13:21:33;96119.16;;;37.46;18.59
34185;BME280;20454;48.100;11.776;2022-07-17T13:24:00;96115.28;;;37.40;18.47
34185;BME280;20454;48.100;11.776;2022-07-17T13:26:26;96105.59;;;37.25;17.77
34185;BME280;20454;48.100;11.776;2022-07-17T13:28:51;96108.00;;;37.17;18.69
34185;BME280;20454;48.100;11.776;2022-07-17T13:31:17;96114.56;;;37.00;17.31
34185;BME280;20454;48.100;11.776;2022-07-17T13:33:44;96117.41;;;36.51;18.57
34185;BME280;20454;48.100;11.776;2022-07-17T13:36:10;96112.25;;;36.16;18.51
34185;BME280;20454;48.100;11.776;2022-07-17T13:38:36;96097.13;;;35.99;19.39
34185;BME280;20454;48.100;11.776;2022-07-17T13:41:02;96105.31;;;35.58;20.20
34185;BME280;20454;48.100;11.776;2022-07-17T13:43:27;96104.69;;;34.95;20.63
34185;BME280;20454;48.100;11.776;2022-07-17T13:45:53;96111.09;;;34.27;20.58
34185;BME280;20454;48.100;11.776;2022-07-17T13:48:19;96110.69;;;33.72;19.79
34185;BME280;20454;48.100;11.776;2022-07-17T13:50:45;96102.97;;;32.80;21.26
34185;BME280;20454;48.100;11.776;2022-07-17T13:53:11;96110.47;;;32.26;22.22
34185;BME280;20454;48.100;11.776;2022-07-17T13:55:38;96113.88;;;31.66;22.49
34185;BME280;20454;48.100;11.776;2022-07-17T13:58:04;96111.13;;;31.20;23.74
34185;BME280;20454;48.100;11.776;2022-07-17T14:00:31;96116.19;;;30.90;24.47
34185;BME280;20454;48.100;11.776;2022-07-17T14:02:57;96125.63;;;30.67;24.30
34185;BME280;20454;48.100;11.776;2022-07-17T14:05:23;96123.53;;;30.45;24.49
34185;BME280;20454;48.100;11.776;2022-07-17T14:07:48;96118.56;;;30.22;24.15
34185;BME280;20454;48.100;11.776;2022-07-17T14:10:14;96108.59;;;30.04;23.33
34185;BME280;20454;48.100;11.776;2022-07-17T14:12:40;96121.66;;;29.78;24.57
34185;BME280;20454;48.100;11.776;2022-07-17T14:15:06;96121.09;;;29.60;24.87
34185;BME280;20454;48.100;11.776;2022-07-17T14:17:33;96112.25;;;29.44;25.37
34185;BME280;20454;48.100;11.776;2022-07-17T14:19:59;96114.06;;;29.31;25.72
34185;BME280;20454;48.100;11.776;2022-07-17T14:22:25;96116.66;;;29.19;25.89
34185;BME280;20454;48.100;11.776;2022-07-17T14:24:51;96108.59;;;29.10;25.60
34185;BME280;20454;48.100;11.776;2022-07-17T14:27:16;96104.94;;;29.06;25.76
34185;BME280;20454;48.100;11.776;2022-07-17T14:29:42;96099.63;;;29.05;25.84
34185;BME280;20454;48.100;11.776;2022-07-17T14:32:08;96096.88;;;28.94;26.04
34185;BME280;20454;48.100;11.776;2022-07-17T14:34:34;96100.94;;;28.97;26.28
34185;BME280;20454;48.100;11.776;2022-07-17T14:37:00;96095.63;;;28.92;26.04
34185;BME280;20454;48.100;11.776;2022-07-17T14:39:29;96104.69;;;28.90;26.52
34185;BME280;20454;48.100;11.776;2022-07-17T14:41:54;96099.75;;;28.91;25.50
34185;BME280;20454;48.100;11.776;2022-07-17T14:44:20;96103.09;;;28.82;26.08
34185;BME280;20454;48.100;11.776;2022-07-17T14:46:46;96103.66;;;28.70;25.42
34185;BME280;20454;48.100;11.776;2022-07-17T14:49:12;96101.28;;;28.62;25.69
34185;BME280;20454;48.100;11.776;2022-07-17T14:51:38;96111.56;;;28.56;26.48
34185;BME280;20454;48.100;11.776;2022-07-17T14:54:04;96110.41;;;28.50;26.06
34185;BME280;20454;48.100;11.776;2022-07-17T14:56:30;96100.28;;;28.38;26.00
34185;BME280;20454;48.100;11.776;2022-07-17T14:58:55;96106.88;;;28.32;26.18
34185;BME280;20454;48.100;11.776;2022-07-17T15:01:21;96101.56;;;28.30;26.50
34185;BME280;20454;48.100;11.776;2022-07-17T15:03:47;96111.75;;;28.31;26.39
34185;BME280;20454;48.100;11.776;2022-07-17T15:06:13;96103.63;;;28.26;26.39
34185;BME280;20454;48.100;11.776;2022-07-17T15:08:38;96108.16;;;28.24;26.35
34185;BME280;20454;48.100;11.776;2022-07-17T15:11:04;96109.41;;;28.19;26.42
34185;BME280;20454;48.100;11.776;2022-07-17T15:13:30;96110.22;;;28.20;26.47
34185;BME280;20454;48.100;11.776;2022-07-17T15:15:56;96104.84;;;28.25;26.40
34185;BME280;20454;48.100;11.776;2022-07-17T15:18:21;96101.94;;;28.32;25.32
34185;BME280;20454;48.100;11.776;2022-07-17T15:20:47;96101.84;;;28.46;25.22
34185;BME280;20454;48.100;11.776;2022-07-17T15:23:13;96098.84;;;28.60;24.71
34185;BME280;20454;48.100;11.776;2022-07-17T15:25:39;96093.75;;;28.78;25.34
34185;BME280;20454;48.100;11.776;2022-07-17T15:28:05;96099.31;;;28.96;25.12
34185;BME280;20454;48.100;11.776;2022-07-17T15:30:32;96100.81;;;29.07;26.12
34185;BME280;20454;48.100;11.776;2022-07-17T15:32:58;96099.09;;;29.17;25.67
34185;BME280;20454;48.100;11.776;2022-07-17T15:35:24;96101.47;;;29.22;25.40
34185;BME280;20454;48.100;11.776;2022-07-17T15:37:52;96107.09;;;29.32;25.71
34185;BME280;20454;48.100;11.776;2022-07-17T15:40:20;96097.69;;;29.28;25.48
34185;BME280;20454;48.100;11.776;2022-07-17T15:42:46;96100.41;;;29.09;26.06
34185;BME280;20454;48.100;11.776;2022-07-17T15:45:14;96099.31;;;28.96;25.80
34185;BME280;20454;48.100;11.776;2022-07-17T15:47:40;96092.88;;;28.81;25.56
34185;BME280;20454;48.100;11.776;2022-07-17T15:50:06;96092.22;;;28.70;26.36
34185;BME280;20454;48.100;11.776;2022-07-17T15:52:31;96098.88;;;28.57;26.75
34185;BME280;20454;48.100;11.776;2022-07-17T15:54:57;96103.50;;;28.44;26.43
34185;BME280;20454;48.100;11.776;2022-07-17T15:57:23;96097.84;;;28.30;26.71
34185;BME280;20454;48.100;11.776;2022-07-17T15:59:49;96105.34;;;28.17;26.96
34185;BME280;20454;48.100;11.776;2022-07-17T16:02:14;96104.19;;;28.11;27.03
34185;BME280;20454;48.100;11.776;2022-07-17T16:04:40;96100.91;;;28.05;26.67
34185;BME280;20454;48.100;11.776;2022-07-17T16:07:06;96094.88;;;27.96;26.90
34185;BME280;20454;48.100;11.776;2022-07-17T16:09:32;96096.94;;;27.89;27.13
34185;BME280;20454;48.100;11.776;2022-07-17T16:11:59;96094.97;;;27.82;27.81
34185;BME280;20454;48.100;11.776;2022-07-17T16:14:25;96083.56;;;27.72;28.49
34185;BME280;20454;48.100;11.776;2022-07-17T16:16:51;96092.97;;;27.76;27.86
34185;BME280;20454;48.100;11.776;2022-07-17T16:19:17;96090.53;;;27.71;27.82
34185;BME280;20454;48.100;11.776;2022-07-17T16:21:42;96096.66;;;27.69;29.42
34185;BME280;20454;48.100;11.776;2022-07-17T16:24:08;96097.50;;;27.66;29.35
34185;BME280;20454;48.100;11.776;2022-07-17T16:26:34;96096.28;;;27.64;28.51
34185;BME280;20454;48.100;11.776;2022-07-17T16:29:00;96087.34;;;27.58;27.84
34185;BME280;20454;48.100;11.776;2022-07-17T16:31:26;96083.28;;;27.52;27.85
34185;BME280;20454;48.100;11.776;2022-07-17T16:33:52;96089.41;;;27.51;28.09
34185;BME280;20454;48.100;11.776;2022-07-17T16:36:18;96096.78;;;27.48;28.05
34185;BME280;20454;48.100;11.776;2022-07-17T16:38:43;96087.81;;;27.46;28.76
34185;BME280;20454;48.100;11.776;2022-07-17T16:41:09;96089.44;;;27.47;28.77
34185;BME280;20454;48.100;11.776;2022-07-17T16:43:35;96086.56;;;27.47;29.63
34185;BME280;20454;48.100;11.776;2022-07-17T16:46:01;96082.09;;;27.43;29.73
34185;BME280;20454;48.100;11.776;2022-07-17T16:48:27;96083.75;;;27.37;28.79
34185;BME280;20454;48.100;11.776;2022-07-17T16:50:54;96076.88;;;27.27;29.82
34185;BME280;20454;48.100;11.776;2022-07-17T16:53:20;96080.97;;;27.23;29.13
34185;BME280;20454;48.100;11.776;2022-07-17T16:55:46;96087.50;;;27.20;29.39
34185;BME280;20454;48.100;11.776;2022-07-17T16:58:12;96076.09;;;27.16;29.34
34185;BME280;20454;48.100;11.776;2022-07-17T17:00:37;96082.63;;;27.13;29.48
34185;BME280;20454;48.100;11.776;2022-07-17T17:03:05;96087.50;;;27.13;29.48
34185;BME280;20454;48.100;11.776;2022-07-17T17:05:32;96079.78;;;27.10;29.52
34185;BME280;20454;48.100;11.776;2022-07-17T18:42:28;96099.03;;;24.09;35.87
34185;BME280;20454;48.100;11.776;2022-07-17T18:44:54;96099.72;;;23.96;36.38
34185;BME280;20454;48.100;11.776;2022-07-17T18:47:19;96108.59;;;23.91;38.05
34185;BME280;20454;48.100;11.776;2022-07-17T18:49:45;96104.84;;;23.80;37.09
34185;BME280;20454;48.100;11.776;2022-07-17T18:52:11;96108.38;;;23.70;38.44
34185;BME280;20454;48.100;11.776;2022-07-17T18:54:37;96103.41;;;23.60;39.21
34185;BME280;20454;48.100;11.776;2022-07-17T18:57:03;96112.22;;;23.48;39.28
34185;BME280;20454;48.100;11.776;2022-07-17T18:59:28;96108.41;;;23.33;39.55
34185;BME280;20454;48.100;11.776;2022-07-17T19:01:54;96110.69;;;23.21;39.86
34185;BME280;20454;48.100;11.776;2022-07-17T19:04:20;96111.31;;;23.07;39.75
34185;BME280;20454;48.100;11.776;2022-07-17T19:06:46;96109.94;;;22.94;40.16
34185;BME280;20454;48.100;11.776;2022-07-17T19:09:12;96115.88;;;22.82;40.49
34185;BME280;20454;48.100;11.776;2022-07-17T19:11:38;96118.09;;;22.66;41.50
34185;BME280;20454;48.100;11.776;2022-07-17T19:14:04;96121.56;;;22.56;41.44
34185;BME280;20454;48.100;11.776;2022-07-17T19:16:30;96125.88;;;22.43;42.06
34185;BME280;20454;48.100;11.776;2022-07-17T19:18:56;96125.63;;;22.29;42.61
34185;BME280;20454;48.100;11.776;2022-07-17T19:21:22;96138.03;;;22.21;43.07
34185;BME280;20454;48.100;11.776;2022-07-17T19:23:49;96135.44;;;22.09;43.49
34185;BME280;20454;48.100;11.776;2022-07-17T19:26:15;96137.25;;;21.98;43.99
34185;BME280;20454;48.100;11.776;2022-07-17T19:28:41;96146.41;;;21.88;44.68
34185;BME280;20454;48.100;11.776;2022-07-17T19:31:07;96137.19;;;21.72;44.98
34185;BME280;20454;48.100;11.776;2022-07-17T19:33:33;96138.19;;;21.61;45.19
34185;BME280;20454;48.100;11.776;2022-07-17T19:35:59;96138.06;;;21.54;45.45
34185;BME280;20454;48.100;11.776;2022-07-17T19:38:24;96153.28;;;21.46;46.37
34185;BME280;20454;48.100;11.776;2022-07-17T19:40:50;96146.22;;;21.36;46.48
34185;BME280;20454;48.100;11.776;2022-07-17T19:43:16;96152.19;;;21.31;46.86